Tuesday, April 24, 2018, 4:35 AM EDT
Back to Local

KMMK, Meriden Markham Municipal Airport

Location: Meriden, CT, United States Lat: 41.517
Local Time: 4:35 AM EDT ( 8:35 GMT) Lon: -72.833
Time Zone: US/Eastern Elev: 101 ft

Show me the last for .
Show Coded

Time T Td Feel RH Dir Speed Gust Alt SLP Vis Weather Sky Remarks
2018-04-24 03:53 34 32 - 92 - Calm - 30.42 30.42 10 CLR None
2018-04-24 02:53 35 33 - 92 - Calm - 30.42 30.42 10 CLR None
2018-04-24 01:53 38 33 - 82 - Calm - 30.42 30.42 10 CLR 6-hr Min Temp (2am): 37.0°F
6-hr Max Temp (2am): 54.0°F
2018-04-24 00:53 39 33 - 79 - Calm - 30.45 30.44 10 CLR 24-hr Min Temp (1am): 33.1°F
24-hr Max Temp (1am): 64.9°F
2018-04-23 23:53 40 32 38 73 160° 3 - 30.45 30.45 10 CLR None
2018-04-23 22:53 45 33 - 62 - Calm - 30.44 30.44 10 CLR None
2018-04-23 21:53 47 30 46 51 190° 3 - 30.45 30.45 10 CLR None
2018-04-23 20:53 51 26 - 37 170° 8 - 30.44 30.44 10 CLR None
2018-04-23 19:53 54 23 - 29 180° 9 - 30.43 30.43 10 CLR 6-hr Min Temp (8pm): 54.0°F
6-hr Max Temp (8pm): 64.9°F
2018-04-23 18:53 58 21 - 23 170° 9 - 30.42 30.42 10 CLR None
2018-04-23 17:53 60 21 - 21 190° 14 - 30.42 30.42 10 CLR None
2018-04-23 16:53 61 22 - 22 190° 13 - 30.42 30.42 10 CLR None
2018-04-23 15:53 62 22 - 21 190° 13 - 30.42 30.42 10 CLR None
2018-04-23 14:53 65 23 - 20 180° 13 - 30.42 30.42 10 CLR None
2018-04-23 13:53 63 24 - 22 120° 6 - 30.44 30.44 10 CLR 6-hr Min Temp (2pm): 45.0°F
6-hr Max Temp (2pm): 64.0°F
2018-04-23 12:53 63 20 - 18 Variable 7 - 30.46 30.46 10 CLR None
2018-04-23 11:53 60 20 - 20 220° 5 - 30.48 30.48 10 CLR None
2018-04-23 10:53 59 22 - 23 20° 7 - 30.48 30.48 10 CLR None
2018-04-23 09:53 55 24 - 29 100° 5 - 30.50 30.49 10 CLR None
2018-04-23 08:53 51 23 - 33 20° 7 - 30.50 30.50 10 CLR None
2018-04-23 07:53 45 26 - 47 - Calm - 30.50 30.50 10 CLR 6-hr Min Temp (8am): 33.1°F
6-hr Max Temp (8am): 45.0°F
2018-04-23 06:53 35 28 - 75 - Calm - 30.49 30.49 10 CLR None
2018-04-23 05:53 34 27 31 75 330° 3 - 30.47 30.47 10 CLR None
2018-04-23 04:53 35 27 - 72 - Calm - 30.45 30.45 10 CLR None

Support USWX by starting your Amazon purchase here.